Huvudsida
METAR-TAF:

METAR-TAF

Flygplatser :

Polokwane, Sydafrika

latitud: 23-50-43S, longitud: 29-27-31E, höjd: 1242 m

Aktuellt väderrapport

Denna rapport gjordes för 1 timme och 3 minuter sedan, klockan 10:00 UTC
Vind 10 kt från väst i byarna ända upp till 21 kt
Temperatur 22°C
Fuktighet 33%
Tryck 1025 hPa
Sikt 10 km eller mer
Spridda moln på en höjd av 2500 ft

METAR: FAPP 181000Z 27010G21KT 9999 SCT025 22/05 Q1025 NOSIG

Tid: 13:03 (11:03 UTC)

Väderprognos

Denna rapport gjordes för 2 timmar och 3 minuter sedan, klockan 09:00 UTC
Prognos gäller från 18 kl. 10 UTC till 18 kl. 18 UTC
Vind 9 kt från väst/sydväst
Sikt 10 km eller mer
Inga moln under 1 500 m eller inga cumulonimbus

TAF: FAPP 180900Z 1810/1818 24009KT CAVOK TX23/1813Z TN14/1818Z

Aktuella väderrapporter och prognoser från 4000 flygplatser (METAR- och TAF-rapporter).

De tillgängliga stationerna syns som gula och röda prickar på kartan.

För musen över prickarna för att se namnen på stationerna.

Klicka sedan för att få väderrapporter och prognoser.

För att ändra kartan: Klicka på de gröna knapparna med ett svart kors på för att zooma in; den gröna knappen med ett streck på för att zooma ut; eller på de gröna pilarna för angränsande kartor.


METAR-TAF: